Alpha, Kentucky
Current Conditions -  °F | °C
As of 5:56 PM on Saturday 22 Nov 2014 (Local Time) from KEKQ Reporting Station
Clear Clear  
Wind Chill: 54°   Ceiling: Unl
Heat Index: 54°   Visibility: 10mi
Dew Point: 35°   Wind: 7mph
Humidity: 49%   Direction: 170°S
Pressure: 30.19"   Gusts: NA
Location:  36.77°N, 85.01°W
Report Text: KEKQ 222356Z AUTO 17006KT 10SM CLR 12/02 A3019 RMK AO2 55008 T01220016 10172 20111 SLP227
Loading
Personal Weather Stations






























Interactive Weather Map New forecast layout! Learn more

10-Day Weather Forecast

Advertisements
Track Severe Weather on mobile